Time;durP1;ratioP1;P1;durP2;ratioP2;P2;SDS_P1;SDS_P2;PMS_P1;PMS_P2;Temp;Humidity;BMP_temperature;BMP_pressure;BME280_temperature;BME280_humidity;BME280_pressure;Samples;Min_cycle;Max_cycle;Signal;HPM_P1;HPM_P2
2021/12/24 00:01:39;;;;;;;183.90;50.10;;;6.20;99.90;;;;;;5053370;28;20113;-79
2021/12/24 00:04:09;;;;;;;192.83;48.77;;;6.20;99.90;;;;;;5059280;28;20055;-79
2021/12/24 00:06:34;;;;;;;194.90;50.80;;;6.20;99.90;;;;;;5060526;28;20044;-79
2021/12/24 00:09:00;;;;;;;174.30;46.43;;;6.20;99.90;;;;;;5073885;28;20031;-80
2021/12/24 00:11:26;;;;;;;185.67;48.90;;;6.30;99.90;;;;;;5057855;28;20062;-78
2021/12/24 00:13:53;;;;;;;152.03;45.20;;;6.20;99.90;;;;;;5074462;28;20044;-79
2021/12/24 00:16:32;;;;;;;168.87;45.10;;;6.30;99.90;;;;;;5056200;28;20433;-79
2021/12/24 00:19:12;;;;;;;186.67;48.57;;;6.40;99.90;;;;;;5057724;28;20059;-78
2021/12/24 00:35:15;;;;;;;144.23;41.93;;;6.50;99.90;;;;;;5028811;28;20037;-79
2021/12/24 00:37:46;;;;;;;138.27;41.13;;;6.50;99.90;;;;;;5017273;28;20045;-80
2021/12/24 00:40:18;;;;;;;161.43;44.57;;;6.50;99.90;;;;;;5023399;28;20186;-79
2021/12/24 00:42:46;;;;;;;164.53;43.53;;;6.60;99.90;;;;;;5010791;28;20045;-80
2021/12/24 00:45:16;;;;;;;139.30;40.87;;;6.60;99.90;;;;;;4981781;28;20053;-79
2021/12/24 00:47:42;;;;;;;156.13;41.97;;;6.60;99.90;;;;;;4998454;28;20061;-79
2021/12/24 00:50:12;;;;;;;122.23;39.87;;;6.60;99.90;;;;;;5011727;28;20038;-80
2021/12/24 00:55:13;;;;;;;91.37;34.10;;;6.60;99.90;;;;;;4999165;28;20061;-80
2021/12/24 00:57:41;;;;;;;102.37;36.50;;;6.60;99.90;;;;;;5018842;28;20069;-81
2021/12/24 01:00:11;;;;;;;102.83;34.93;;;6.70;99.90;;;;;;4999312;28;20041;-81
2021/12/24 01:02:39;;;;;;;87.30;33.60;;;6.70;99.90;;;;;;5053190;28;20045;-80
2021/12/24 01:05:06;;;;;;;93.17;33.63;;;6.70;99.90;;;;;;5029197;28;20049;-80
2021/12/24 01:07:32;;;;;;;91.47;32.83;;;6.70;99.90;;;;;;5013911;28;20050;-80
2021/12/24 01:09:58;;;;;;;79.70;30.63;;;6.70;99.90;;;;;;5011720;28;20085;-80
2021/12/24 01:12:25;;;;;;;77.47;30.07;;;6.80;99.90;;;;;;5009433;28;20047;-81
2021/12/24 01:14:51;;;;;;;68.10;28.10;;;6.80;99.90;;;;;;5017118;28;20034;-80
2021/12/24 01:17:32;;;;;;;70.30;28.63;;;6.80;99.90;;;;;;5013822;28;20037;-81
2021/12/24 01:20:06;;;;;;;63.63;27.40;;;6.80;99.90;;;;;;5014463;28;20046;-80
2021/12/24 01:23:17;;;;;;;58.70;25.37;;;6.90;99.90;;;;;;5017446;28;20057;-82
2021/12/24 01:25:35;;;;;;;61.97;25.70;;;6.90;99.90;;;;;;5008389;28;20033;-80
2021/12/24 01:28:26;;;;;;;60.17;26.05;;;6.90;99.90;;;;;;5007583;28;20061;-80
2021/12/24 01:39:11;;;;;;;53.70;23.83;;;7.00;99.90;;;;;;5008303;28;20037;-81
2021/12/24 01:44:27;;;;;;;;;;;7.10;99.90;;;;;;5006063;28;20037;-81
2021/12/24 01:46:55;;;;;;;54.97;22.87;;;7.10;99.90;;;;;;5020256;28;19924;-80
2021/12/24 01:49:21;;;;;;;46.93;21.70;;;7.10;99.90;;;;;;5002667;28;20124;-80
2021/12/24 01:51:49;;;;;;;48.10;22.20;;;7.20;99.90;;;;;;4992921;28;20084;-82
2021/12/24 01:54:14;;;;;;;45.93;20.60;;;7.20;99.90;;;;;;5005172;28;20064;-81
2021/12/24 01:56:40;;;;;;;40.33;20.30;;;7.20;99.90;;;;;;5005229;28;20486;-81
2021/12/24 01:59:07;;;;;;;45.93;20.73;;;7.20;99.90;;;;;;5021691;28;20617;-81
2021/12/24 02:01:32;;;;;;;41.77;20.87;;;7.20;99.90;;;;;;5013898;28;20045;-81
2021/12/24 02:03:58;;;;;;;38.60;19.33;;;7.30;99.90;;;;;;4994248;28;20128;-81
2021/12/24 02:06:24;;;;;;;41.17;20.80;;;7.30;99.90;;;;;;5007766;28;20052;-81
2021/12/24 02:08:51;;;;;;;34.93;18.07;;;7.30;99.90;;;;;;5025362;28;20422;-81
2021/12/24 02:11:17;;;;;;;37.03;18.90;;;7.40;99.90;;;;;;5011552;28;20069;-81
2021/12/24 02:13:43;;;;;;;32.40;17.67;;;7.30;99.90;;;;;;5001059;28;20072;-81
2021/12/24 02:16:22;;;;;;;35.03;18.10;;;7.40;99.90;;;;;;5017954;28;20028;-81
2021/12/24 02:29:52;;;;;;;37.25;18.77;;;7.40;99.90;;;;;;5016512;28;20099;-81
2021/12/24 02:32:18;;;;;;;34.33;18.83;;;7.50;99.90;;;;;;4993357;28;20038;-82
2021/12/24 02:34:44;;;;;;;41.93;20.43;;;7.50;99.90;;;;;;5033943;28;20053;-83
2021/12/24 02:37:12;;;;;;;39.20;19.70;;;7.50;99.90;;;;;;5000636;28;20399;-81
2021/12/24 02:39:38;;;;;;;41.00;20.10;;;7.50;99.90;;;;;;5016259;28;20605;-82
2021/12/24 02:42:13;;;;;;;38.47;19.33;;;7.60;99.90;;;;;;5018802;28;20075;-82
2021/12/24 02:44:39;;;;;;;32.87;17.67;;;7.60;99.90;;;;;;5000420;28;20783;-83
2021/12/24 02:47:12;;;;;;;37.83;20.03;;;7.60;99.90;;;;;;4990178;28;20342;-81
2021/12/24 02:55:01;;;;;;;30.43;17.50;;;7.70;99.90;;;;;;5005673;28;20774;-81
2021/12/24 02:57:28;;;;;;;29.57;15.73;;;7.70;99.90;;;;;;4989154;28;20050;-82
2021/12/24 03:00:06;;;;;;;33.30;17.20;;;7.80;99.90;;;;;;5023127;28;20068;-82
2021/12/24 03:02:33;;;;;;;26.83;15.50;;;7.90;99.90;;;;;;5020777;28;20064;-81
2021/12/24 03:04:59;;;;;;;30.00;16.40;;;7.80;99.90;;;;;;5038254;28;20037;-81
2021/12/24 03:07:26;;;;;;;30.27;16.20;;;7.90;99.90;;;;;;5052831;28;20105;-82
2021/12/24 03:09:53;;;;;;;31.80;16.83;;;7.90;99.90;;;;;;5001880;28;20136;-82
2021/12/24 03:12:20;;;;;;;33.43;17.83;;;7.90;99.90;;;;;;5021074;28;20077;-83
2021/12/24 03:14:46;;;;;;;39.47;18.37;;;8.00;99.90;;;;;;5049030;28;20110;-84
2021/12/24 03:17:17;;;;;;;40.23;19.60;;;8.00;99.90;;;;;;5026354;28;20462;-81
2021/12/24 03:19:42;;;;;;;43.07;20.80;;;8.00;99.90;;;;;;5019153;28;20034;-80
2021/12/24 03:24:54;;;;;;;35.00;18.47;;;8.10;99.90;;;;;;4998513;28;20091;-79
2021/12/24 03:27:22;;;;;;;44.73;19.80;;;8.10;99.90;;;;;;5037584;28;20038;-82
2021/12/24 03:29:49;;;;;;;38.37;18.60;;;8.20;99.90;;;;;;4998467;28;20041;-81
2021/12/24 03:32:15;;;;;;;42.47;20.13;;;8.20;99.90;;;;;;5031452;28;20050;-82
2021/12/24 03:34:41;;;;;;;47.33;20.50;;;8.20;99.90;;;;;;5002605;28;20124;-80
2021/12/24 03:37:07;;;;;;;46.60;20.40;;;8.30;99.90;;;;;;4984274;28;20036;-80
2021/12/24 03:39:35;;;;;;;50.83;20.37;;;8.30;99.90;;;;;;5025743;28;20033;-82
2021/12/24 03:42:04;;;;;;;50.83;21.80;;;8.40;99.90;;;;;;4986685;28;20446;-83
2021/12/24 03:44:34;;;;;;;45.77;19.57;;;8.40;99.90;;;;;;4997838;28;20132;-80
2021/12/24 03:47:09;;;;;;;50.90;20.23;;;8.40;99.90;;;;;;4988911;28;20410;-81
2021/12/24 03:49:45;;;;;;;41.97;18.30;;;8.40;99.90;;;;;;5016437;28;20168;-80
2021/12/24 03:52:20;;;;;;;49.17;20.47;;;8.50;99.90;;;;;;4994520;28;20041;-81
2021/12/24 03:55:00;;;;;;;41.13;18.30;;;8.50;99.90;;;;;;5000041;28;20048;-81
2021/12/24 03:57:34;;;;;;;46.17;18.63;;;8.60;99.90;;;;;;5015254;28;20050;-81
2021/12/24 04:00:21;;;;;;;43.83;19.33;;;8.60;99.90;;;;;;5024020;28;20053;-82
2021/12/24 04:02:56;;;;;;;43.93;19.43;;;8.60;99.90;;;;;;5015759;28;20045;-81
2021/12/24 04:05:41;;;;;;;43.88;19.08;;;8.60;99.90;;;;;;5017214;28;20049;-81
2021/12/24 04:08:25;;;;;;;44.80;19.83;;;8.70;99.90;;;;;;5022278;28;20059;-82
2021/12/24 04:11:08;;;;;;;48.60;20.23;;;8.70;99.90;;;;;;5025593;28;20491;-81
2021/12/24 04:13:39;;;;;;;54.87;22.93;;;8.70;99.90;;;;;;5015277;28;20045;-80
2021/12/24 04:16:05;;;;;;;53.27;22.20;;;8.70;99.90;;;;;;5018338;28;20041;-81
2021/12/24 04:18:45;;;;;;;53.70;23.17;;;8.70;99.90;;;;;;5025236;28;20034;-81
2021/12/24 04:26:40;;;;;;;;;;;8.70;99.90;;;;;;5015975;28;20503;-80
2021/12/24 04:29:08;;;;;;;56.93;23.73;;;8.70;99.90;;;;;;5018006;28;19996;-80
2021/12/24 04:34:46;;;;;;;67.23;27.20;;;8.70;99.90;;;;;;5039195;28;20099;-82
2021/12/24 04:38:05;;;;;;;75.13;29.80;;;8.70;99.90;;;;;;5014933;28;20041;-80
2021/12/24 04:51:25;;;;;;;68.25;28.45;;;8.80;99.90;;;;;;5017795;28;20045;-80
2021/12/24 05:05:07;;;;;;;64.63;29.27;;;8.80;99.90;;;;;;5024053;28;20049;-80
2021/12/24 05:09:59;;;;;;;64.83;29.07;;;8.80;99.90;;;;;;5035884;28;20044;-80
2021/12/24 05:12:26;;;;;;;55.13;26.77;;;8.80;99.90;;;;;;5014382;28;20049;-81
2021/12/24 05:14:52;;;;;;;64.60;28.97;;;8.90;99.90;;;;;;5020068;28;20434;-81
2021/12/24 05:23:33;;;;;;;62.17;28.70;;;8.90;99.90;;;;;;5007218;28;20151;-81
2021/12/24 05:26:01;;;;;;;62.87;28.73;;;8.90;99.90;;;;;;4986228;28;20061;-82
2021/12/24 05:28:27;;;;;;;59.97;26.87;;;8.90;99.90;;;;;;5000076;28;20053;-81
2021/12/24 05:30:53;;;;;;;56.40;26.70;;;8.90;99.90;;;;;;5008403;28;20038;-81
2021/12/24 05:33:21;;;;;;;56.60;27.57;;;9.00;99.90;;;;;;5005732;28;20046;-82
2021/12/24 05:35:47;;;;;;;57.90;27.13;;;8.90;99.90;;;;;;5010504;28;20037;-81
2021/12/24 05:38:14;;;;;;;57.40;27.73;;;8.90;99.90;;;;;;5003652;28;20041;-79
2021/12/24 05:40:41;;;;;;;67.33;28.80;;;8.90;99.90;;;;;;4985272;28;20045;-80
2021/12/24 05:43:08;;;;;;;69.07;27.33;;;8.90;99.90;;;;;;5004298;28;20044;-81
2021/12/24 05:45:34;;;;;;;62.20;29.67;;;8.90;99.90;;;;;;4993325;28;20049;-80
2021/12/24 05:48:20;;;;;;;72.37;28.37;;;8.90;99.90;;;;;;5015623;28;20071;-80
2021/12/24 05:50:48;;;;;;;60.80;28.33;;;8.80;99.90;;;;;;5004234;28;20053;-81
2021/12/24 05:53:32;;;;;;;57.10;25.63;;;8.90;99.90;;;;;;5038952;28;20076;-81
2021/12/24 05:56:06;;;;;;;68.00;27.80;;;8.90;99.90;;;;;;5017338;28;20410;-81
2021/12/24 05:58:32;;;;;;;63.90;26.20;;;8.90;99.90;;;;;;5025083;28;20037;-82
2021/12/24 06:00:58;;;;;;;59.40;27.73;;;8.90;99.90;;;;;;4987319;28;20038;-79
2021/12/24 06:03:35;;;;;;;54.77;26.07;;;8.90;99.90;;;;;;5005104;28;20037;-81
2021/12/24 06:06:01;;;;;;;60.57;25.97;;;8.90;99.90;;;;;;5023184;28;20132;-81
2021/12/24 06:08:27;;;;;;;60.27;25.17;;;8.90;99.90;;;;;;5016785;28;20049;-82
2021/12/24 06:10:53;;;;;;;55.60;22.17;;;8.90;99.90;;;;;;5058512;28;20041;-81
2021/12/24 06:13:18;;;;;;;54.13;23.20;;;8.90;99.90;;;;;;4984862;28;20068;-81
2021/12/24 06:15:46;;;;;;;56.03;22.77;;;8.90;99.90;;;;;;5022649;28;20459;-80
2021/12/24 06:18:20;;;;;;;50.70;22.13;;;8.90;99.90;;;;;;4986838;28;20076;-80
2021/12/24 06:20:48;;;;;;;42.30;21.27;;;8.90;99.90;;;;;;5011033;28;20095;-81
2021/12/24 06:23:14;;;;;;;39.80;19.43;;;8.90;99.90;;;;;;4988527;28;20041;-79
2021/12/24 06:25:40;;;;;;;46.03;19.17;;;8.90;99.90;;;;;;4999430;28;20132;-80
2021/12/24 06:28:06;;;;;;;47.77;19.00;;;8.90;99.90;;;;;;4980863;28;20128;-79
2021/12/24 06:30:32;;;;;;;37.13;18.30;;;8.80;99.90;;;;;;5010093;28;20148;-79
2021/12/24 06:32:59;;;;;;;34.00;16.80;;;8.90;99.90;;;;;;5009333;28;20045;-80
2021/12/24 06:35:26;;;;;;;40.97;18.03;;;8.80;99.90;;;;;;5003217;28;20075;-81
2021/12/24 06:37:56;;;;;;;36.10;17.47;;;8.80;99.90;;;;;;5010398;28;20045;-79
2021/12/24 06:40:22;;;;;;;47.77;19.17;;;8.80;99.90;;;;;;4987160;28;20052;-80
2021/12/24 06:42:47;;;;;;;42.03;19.53;;;8.80;99.90;;;;;;5017921;28;20065;-81
2021/12/24 06:45:14;;;;;;;41.63;17.87;;;8.80;99.90;;;;;;5022300;28;20037;-80
2021/12/24 06:47:39;;;;;;;50.30;20.07;;;8.80;99.90;;;;;;5006653;28;20072;-79
2021/12/24 06:50:07;;;;;;;51.30;19.60;;;8.80;99.90;;;;;;5016081;28;20045;-80
2021/12/24 06:52:32;;;;;;;38.67;20.10;;;8.80;99.90;;;;;;5048540;28;20073;-79
2021/12/24 06:54:59;;;;;;;45.47;18.10;;;8.80;99.90;;;;;;5017401;28;20053;-81
2021/12/24 06:57:25;;;;;;;47.63;17.33;;;8.80;99.90;;;;;;5006380;28;20069;-79
2021/12/24 06:59:52;;;;;;;47.90;19.13;;;8.70;99.90;;;;;;5006808;28;20506;-79
2021/12/24 07:02:18;;;;;;;41.20;16.03;;;8.70;99.90;;;;;;5032712;28;20071;-79
2021/12/24 07:04:44;;;;;;;41.20;15.73;;;8.70;99.90;;;;;;5030585;28;20128;-79
2021/12/24 07:07:10;;;;;;;34.43;13.40;;;8.70;99.90;;;;;;4996899;28;20048;-80
2021/12/24 07:09:41;;;;;;;40.60;13.73;;;8.70;99.90;;;;;;5021006;28;20065;-81
2021/12/24 07:12:10;;;;;;;39.47;14.50;;;8.70;99.90;;;;;;5037332;28;20050;-79
2021/12/24 07:14:37;;;;;;;37.17;13.30;;;8.70;99.90;;;;;;5005721;28;20107;-81
2021/12/24 07:17:04;;;;;;;36.30;13.13;;;8.70;99.90;;;;;;5037588;28;20443;-79
2021/12/24 07:19:29;;;;;;;43.53;13.70;;;8.70;99.90;;;;;;5020980;28;20080;-79
2021/12/24 07:21:55;;;;;;;34.90;13.40;;;8.70;99.90;;;;;;4996219;28;20087;-80
2021/12/24 07:24:21;;;;;;;37.73;12.53;;;8.70;99.90;;;;;;5010369;28;20049;-79
2021/12/24 07:26:47;;;;;;;29.60;12.13;;;8.70;99.90;;;;;;5001067;28;20073;-82
2021/12/24 07:29:14;;;;;;;39.70;11.87;;;8.70;99.90;;;;;;4996194;28;20064;-81
2021/12/24 07:31:40;;;;;;;33.30;11.33;;;8.70;99.90;;;;;;5011738;28;20056;-80
2021/12/24 07:34:05;;;;;;;31.40;10.83;;;8.70;99.90;;;;;;4991409;28;20046;-78
2021/12/24 07:36:31;;;;;;;33.17;10.67;;;8.70;99.90;;;;;;5012954;28;20046;-81
2021/12/24 07:38:57;;;;;;;33.77;10.83;;;8.70;99.90;;;;;;4995049;28;20075;-80
2021/12/24 07:41:24;;;;;;;29.43;10.33;;;8.70;99.90;;;;;;5013613;28;20589;-82
2021/12/24 07:43:50;;;;;;;28.73;10.33;;;8.70;99.90;;;;;;5012649;28;20124;-80
2021/12/24 07:46:17;;;;;;;29.70;10.40;;;8.70;99.90;;;;;;5013313;28;20116;-80
2021/12/24 07:48:47;;;;;;;28.47;10.60;;;8.70;99.90;;;;;;5013303;28;20087;-81
2021/12/24 07:54:00;;;;;;;26.73;9.97;;;8.70;99.90;;;;;;5012096;28;20445;-79
2021/12/24 07:56:27;;;;;;;27.33;10.00;;;8.70;99.90;;;;;;5005034;28;20048;-80
2021/12/24 07:58:53;;;;;;;24.83;9.43;;;8.70;99.90;;;;;;5014417;28;20053;-80
2021/12/24 08:01:22;;;;;;;28.33;10.40;;;8.70;99.90;;;;;;5013324;28;20087;-79
2021/12/24 08:03:47;;;;;;;29.40;9.13;;;8.60;99.90;;;;;;5012950;28;20124;-80
2021/12/24 08:06:13;;;;;;;27.00;8.57;;;8.60;99.90;;;;;;4997315;28;20124;-79
2021/12/24 08:08:39;;;;;;;27.37;9.83;;;8.60;99.90;;;;;;4995746;28;20048;-81
2021/12/24 08:11:05;;;;;;;31.83;8.83;;;8.60;99.90;;;;;;5012961;28;20406;-79
2021/12/24 08:13:30;;;;;;;25.60;8.30;;;8.60;99.90;;;;;;5010833;28;21833;-79
2021/12/24 08:15:56;;;;;;;29.03;8.90;;;8.60;99.90;;;;;;5014726;28;20061;-80
2021/12/24 08:18:23;;;;;;;29.77;8.23;;;8.60;99.90;;;;;;5013674;28;20055;-80
2021/12/24 08:20:49;;;;;;;27.90;8.50;;;8.70;99.90;;;;;;4998864;28;20491;-79
2021/12/24 08:23:15;;;;;;;30.77;7.90;;;8.60;99.90;;;;;;5011275;28;20710;-77
2021/12/24 08:25:41;;;;;;;26.97;7.90;;;8.70;99.90;;;;;;5013955;28;20045;-79
2021/12/24 08:28:06;;;;;;;23.93;8.33;;;8.70;99.90;;;;;;5015370;28;20132;-79
2021/12/24 08:30:32;;;;;;;25.40;7.50;;;8.70;99.90;;;;;;5046251;28;20045;-80
2021/12/24 08:33:00;;;;;;;25.33;7.03;;;8.70;99.90;;;;;;5006210;28;20391;-79
2021/12/24 08:35:28;;;;;;;32.20;7.40;;;8.70;99.90;;;;;;4996078;28;20052;-80
2021/12/24 08:37:55;;;;;;;32.43;7.23;;;8.70;99.90;;;;;;5017576;28;20103;-80
2021/12/24 08:40:21;;;;;;;29.97;7.33;;;8.70;99.90;;;;;;4996126;28;20038;-80
2021/12/24 08:42:46;;;;;;;29.87;7.37;;;8.70;99.90;;;;;;5002378;28;20045;-80
2021/12/24 08:45:13;;;;;;;34.50;7.83;;;8.70;99.90;;;;;;4985079;28;20434;-79
2021/12/24 08:47:39;;;;;;;28.47;7.90;;;8.70;99.90;;;;;;5016918;28;20615;-79
2021/12/24 08:50:08;;;;;;;36.63;8.20;;;8.70;99.90;;;;;;4984621;28;20426;-80
2021/12/24 08:52:35;;;;;;;31.20;7.97;;;8.70;99.90;;;;;;5001557;28;20046;-77
2021/12/24 08:55:00;;;;;;;31.07;7.43;;;8.70;99.90;;;;;;5013353;28;20064;-79
2021/12/24 08:57:26;;;;;;;34.47;8.20;;;8.70;99.90;;;;;;5018102;28;20049;-79
2021/12/24 08:59:52;;;;;;;36.53;8.20;;;8.70;99.90;;;;;;5032387;28;20041;-79
2021/12/24 09:02:18;;;;;;;34.97;7.30;;;8.70;99.90;;;;;;5015477;28;20095;-78
2021/12/24 09:04:43;;;;;;;27.93;6.53;;;8.70;99.90;;;;;;5012204;28;20070;-80
2021/12/24 09:07:10;;;;;;;26.23;6.10;;;8.80;99.90;;;;;;5030240;28;20049;-79
2021/12/24 09:09:37;;;;;;;25.77;6.23;;;8.80;99.90;;;;;;5030813;28;20075;-79
2021/12/24 09:12:04;;;;;;;32.63;7.03;;;8.80;99.90;;;;;;5013481;28;20046;-80
2021/12/24 09:14:30;;;;;;;32.73;6.53;;;8.80;99.90;;;;;;5013616;28;20053;-78
2021/12/24 09:16:59;;;;;;;24.17;6.07;;;8.80;99.90;;;;;;5001983;28;20095;-81
2021/12/24 09:19:28;;;;;;;33.30;7.40;;;8.80;99.90;;;;;;5029871;28;20062;-80
2021/12/24 09:21:55;;;;;;;23.87;6.23;;;8.80;99.90;;;;;;5024256;28;20052;-79
2021/12/24 09:24:23;;;;;;;28.10;7.20;;;8.80;99.90;;;;;;5006802;28;20125;-80
2021/12/24 09:26:56;;;;;;;29.03;6.53;;;8.80;99.90;;;;;;4991655;28;20055;-77
2021/12/24 09:29:22;;;;;;;30.77;6.30;;;8.80;99.90;;;;;;5000613;28;20107;-80
2021/12/24 09:31:48;;;;;;;27.60;6.60;;;8.80;99.90;;;;;;4999573;28;20060;-80
2021/12/24 09:34:14;;;;;;;32.00;7.97;;;8.80;99.90;;;;;;4991195;28;20073;-80
2021/12/24 09:36:40;;;;;;;30.80;7.40;;;8.80;99.90;;;;;;5044545;28;20072;-79
2021/12/24 09:39:06;;;;;;;29.43;7.30;;;8.90;99.90;;;;;;5001494;28;20052;-79
2021/12/24 09:41:32;;;;;;;26.03;7.50;;;8.90;99.90;;;;;;5013019;28;20041;-81
2021/12/24 09:44:00;;;;;;;28.67;7.40;;;8.90;99.90;;;;;;5014667;28;20514;-81
2021/12/24 09:46:27;;;;;;;28.70;7.80;;;8.90;99.90;;;;;;5030756;28;20643;-79
2021/12/24 09:48:53;;;;;;;35.03;6.80;;;8.90;99.90;;;;;;5001996;28;20037;-80
2021/12/24 09:51:20;;;;;;;26.30;7.27;;;8.90;99.90;;;;;;5013084;28;20057;-82
2021/12/24 09:53:46;;;;;;;32.47;7.50;;;8.90;99.90;;;;;;5017277;28;20410;-79
2021/12/24 09:56:12;;;;;;;30.83;7.50;;;8.90;99.90;;;;;;5015060;28;20033;-78
2021/12/24 09:58:37;;;;;;;34.83;8.07;;;8.90;99.90;;;;;;5011040;28;20529;-81
2021/12/24 10:01:05;;;;;;;30.50;7.97;;;8.90;99.90;;;;;;4998745;28;20059;-80
2021/12/24 10:03:32;;;;;;;34.30;7.40;;;8.90;99.90;;;;;;5026518;28;20099;-80
2021/12/24 10:05:58;;;;;;;31.40;7.67;;;8.90;99.90;;;;;;5047180;28;20048;-79
2021/12/24 10:08:25;;;;;;;33.47;7.60;;;8.90;99.90;;;;;;5008543;28;20038;-78
2021/12/24 10:10:59;;;;;;;31.30;7.33;;;8.90;99.90;;;;;;5015000;28;20045;-79
2021/12/24 10:13:32;;;;;;;34.83;7.82;;;8.90;99.90;;;;;;5028616;28;20104;-80
2021/12/24 10:16:01;;;;;;;27.60;6.90;;;8.90;99.90;;;;;;5013305;28;20589;-80
2021/12/24 10:18:35;;;;;;;32.97;7.77;;;8.90;99.90;;;;;;5011729;28;20046;-81
2021/12/24 10:21:04;;;;;;;27.08;7.65;;;8.90;99.90;;;;;;4995424;28;20132;-80
2021/12/24 10:23:48;;;;;;;30.67;7.60;;;9.00;99.90;;;;;;5000314;28;20049;-80
2021/12/24 10:26:17;;;;;;;29.80;8.03;;;8.90;99.90;;;;;;5013786;28;20033;-79
2021/12/24 10:28:55;;;;;;;36.20;8.10;;;9.00;99.90;;;;;;5047645;28;20154;-80
2021/12/24 10:31:23;;;;;;;35.00;8.03;;;9.00;99.90;;;;;;5026727;28;20042;-80
2021/12/24 10:34:21;;;;;;;30.57;8.10;;;9.00;99.90;;;;;;4994207;28;20698;-79
2021/12/24 10:37:09;;;;;;;32.17;8.37;;;8.90;99.90;;;;;;4996495;28;20144;-80
2021/12/24 10:39:41;;;;;;;35.87;9.17;;;8.90;99.90;;;;;;5045673;28;20594;-80
2021/12/24 10:42:12;;;;;;;35.57;9.47;;;8.90;99.90;;;;;;5029078;28;20545;-78
2021/12/24 10:44:39;;;;;;;39.00;9.47;;;8.90;99.90;;;;;;5008373;28;20124;-80
2021/12/24 10:47:09;;;;;;;33.83;9.30;;;8.90;99.90;;;;;;5012272;28;20038;-79
2021/12/24 10:54:52;;;;;;;33.50;9.83;;;8.90;99.90;;;;;;5010586;28;20494;-79
2021/12/24 10:57:22;;;;;;;41.50;10.63;;;8.90;99.90;;;;;;5026622;28;20044;-80
2021/12/24 10:59:51;;;;;;;38.17;9.10;;;8.90;99.90;;;;;;4975309;28;20041;-80
2021/12/24 11:02:20;;;;;;;42.97;9.83;;;8.90;99.90;;;;;;5013156;28;20136;-79
2021/12/24 11:04:47;;;;;;;28.90;8.70;;;8.90;99.90;;;;;;5009073;28;20467;-79
2021/12/24 11:07:35;;;;;;;31.30;8.13;;;8.90;99.90;;;;;;5025362;28;20107;-80
2021/12/24 11:10:13;;;;;;;26.23;7.80;;;9.00;99.90;;;;;;5011532;28;20037;-79
2021/12/24 11:12:42;;;;;;;21.37;6.23;;;9.00;99.90;;;;;;5026338;28;20056;-79
2021/12/24 11:15:22;;;;;;;25.90;6.43;;;9.00;99.90;;;;;;5011368;28;20037;-80
2021/12/24 11:17:49;;;;;;;16.03;4.70;;;9.00;99.90;;;;;;5012627;28;20041;-80
2021/12/24 11:20:16;;;;;;;9.77;4.00;;;9.00;99.90;;;;;;4997746;28;20061;-80
2021/12/24 11:22:58;;;;;;;4.33;2.00;;;9.00;99.90;;;;;;5018543;28;20041;-79
2021/12/24 11:25:26;;;;;;;5.13;1.80;;;8.90;99.90;;;;;;5032165;28;20060;-80
2021/12/24 11:27:53;;;;;;;3.37;1.97;;;8.80;99.90;;;;;;5010982;28;20037;-79
2021/12/24 11:30:21;;;;;;;3.90;2.10;;;8.60;99.90;;;;;;5030529;28;20464;-79
2021/12/24 11:32:48;;;;;;;6.43;2.20;;;8.40;99.90;;;;;;5004162;28;20107;-80
2021/12/24 11:35:16;;;;;;;2.57;2.10;;;8.30;99.90;;;;;;5012012;28;20492;-81
2021/12/24 11:37:46;;;;;;;2.20;1.80;;;8.20;99.90;;;;;;5032880;28;20068;-80
2021/12/24 11:40:13;;;;;;;2.03;1.80;;;8.20;99.90;;;;;;5004102;28;20064;-80
2021/12/24 11:42:40;;;;;;;2.10;1.40;;;8.10;99.90;;;;;;5026930;28;20068;-80
2021/12/24 11:45:07;;;;;;;2.50;1.60;;;8.10;99.90;;;;;;5005535;28;20041;-80
2021/12/24 11:47:33;;;;;;;1.87;1.70;;;8.00;99.90;;;;;;5012530;28;20646;-79
2021/12/24 11:49:59;;;;;;;2.40;1.67;;;8.00;99.90;;;;;;5051272;28;20406;-79
2021/12/24 11:52:27;;;;;;;2.20;1.80;;;8.00;99.90;;;;;;5013958;28;20042;-80
2021/12/24 11:54:54;;;;;;;2.13;1.50;;;8.00;99.90;;;;;;5012053;28;20045;-80
2021/12/24 11:57:21;;;;;;;1.73;1.30;;;7.90;99.90;;;;;;5027692;28;20050;-81
2021/12/24 11:59:47;;;;;;;1.10;1.00;;;7.90;99.90;;;;;;5009236;28;20121;-79
2021/12/24 12:02:34;;;;;;;1.03;0.87;;;7.90;99.90;;;;;;5001064;28;20049;-80
2021/12/24 12:05:11;;;;;;;1.10;0.80;;;7.80;99.90;;;;;;5009906;28;20048;-80
2021/12/24 12:07:38;;;;;;;1.07;0.80;;;7.80;99.90;;;;;;5028370;28;20069;-80
2021/12/24 12:10:05;;;;;;;1.67;0.97;;;7.80;99.90;;;;;;5012480;28;20053;-80
2021/12/24 12:12:35;;;;;;;0.93;0.80;;;7.70;99.90;;;;;;5000804;28;20077;-80
2021/12/24 12:15:26;;;;;;;1.20;1.00;;;7.80;99.90;;;;;;5005928;28;20053;-80
2021/12/24 12:17:54;;;;;;;1.20;0.80;;;7.80;99.90;;;;;;4992462;28;20038;-80
2021/12/24 12:20:41;;;;;;;0.97;0.83;;;7.80;99.90;;;;;;5020874;28;20411;-80
2021/12/24 12:23:15;;;;;;;1.77;1.20;;;7.90;99.90;;;;;;5035987;22;20044;-85
2021/12/24 12:25:42;;;;;;;2.03;1.10;;;7.90;99.90;;;;;;5053288;28;20414;-86
2021/12/24 12:28:16;;;;;;;2.27;1.47;;;7.90;99.90;;;;;;5037494;28;20033;-84
2021/12/24 12:30:50;;;;;;;3.50;1.58;;;7.90;99.90;;;;;;5053890;28;20037;-85
2021/12/24 12:33:17;;;;;;;;;;;7.80;99.90;;;;;;5079198;28;20681;-85
2021/12/24 12:35:47;;;;;;;2.33;1.70;;;7.80;99.90;;;;;;5035520;28;19931;-85
2021/12/24 12:38:32;;;;;;;2.70;2.00;;;7.80;99.90;;;;;;5047879;28;20043;-85
2021/12/24 12:41:26;;;;;;;3.47;1.77;;;7.80;99.90;;;;;;5055931;28;20052;-83
2021/12/24 12:43:54;;;;;;;2.77;2.10;;;7.80;99.90;;;;;;5052514;28;20055;-85
2021/12/24 12:46:24;;;;;;;2.23;1.70;;;7.80;99.90;;;;;;5036442;28;20562;-85
2021/12/24 12:48:53;;;;;;;2.10;1.40;;;7.80;99.90;;;;;;5045151;28;20037;-85
2021/12/24 12:51:22;;;;;;;2.10;1.60;;;7.80;99.90;;;;;;5046760;28;20040;-84
2021/12/24 12:53:51;;;;;;;3.67;2.07;;;7.80;99.90;;;;;;5043153;28;20040;-85
2021/12/24 12:56:23;;;;;;;2.40;1.90;;;7.80;99.90;;;;;;5034340;28;20117;-85
2021/12/24 12:58:55;;;;;;;2.43;1.80;;;7.80;99.90;;;;;;5069112;28;20052;-84
2021/12/24 13:01:21;;;;;;;1.90;1.50;;;7.80;99.90;;;;;;5036489;28;20095;-84
2021/12/24 13:04:13;;;;;;;1.97;1.70;;;7.80;99.90;;;;;;5053443;28;20417;-84
2021/12/24 13:06:54;;;;;;;2.13;1.60;;;7.90;99.90;;;;;;5038748;28;20048;-86
2021/12/24 13:09:27;;;;;;;2.10;1.70;;;7.80;99.90;;;;;;5050798;28;20048;-85
2021/12/24 13:11:55;;;;;;;2.63;1.83;;;7.70;99.90;;;;;;5047884;28;20072;-85
2021/12/24 13:14:22;;;;;;;2.77;1.90;;;7.70;99.90;;;;;;5022684;28;20090;-85
2021/12/24 13:16:54;;;;;;;3.00;2.10;;;7.60;99.90;;;;;;5055095;28;20098;-85
2021/12/24 13:25:02;;;;;;;2.87;2.33;;;7.60;99.90;;;;;;5050615;28;20040;-85
2021/12/24 13:27:31;;;;;;;5.27;2.60;;;7.60;99.90;;;;;;5060104;28;20045;-85
2021/12/24 13:30:06;;;;;;;2.63;2.20;;;7.60;99.90;;;;;;5053453;28;20044;-85
2021/12/24 13:32:38;;;;;;;4.73;2.60;;;7.60;99.90;;;;;;5071105;28;20075;-84
2021/12/24 13:35:04;;;;;;;4.07;2.57;;;7.60;99.90;;;;;;5049826;28;20051;-85
2021/12/24 13:37:32;;;;;;;3.07;2.70;;;7.70;99.90;;;;;;5050657;28;20041;-85
2021/12/24 13:39:59;;;;;;;4.17;2.37;;;7.50;99.90;;;;;;5053678;28;20510;-84
2021/12/24 13:42:24;;;;;;;3.30;2.63;;;7.60;99.90;;;;;;5040217;28;20044;-85
2021/12/24 13:44:59;;;;;;;3.07;2.40;;;7.60;99.90;;;;;;5057596;28;20109;-85
2021/12/24 13:47:40;;;;;;;;;;;7.60;99.90;;;;;;5055423;28;20066;-85
2021/12/24 13:55:39;;;;;;;2.97;2.67;;;7.50;99.90;;;;;;5069286;28;20055;-85
2021/12/24 13:58:09;;;;;;;4.30;2.50;;;7.50;99.90;;;;;;5048526;28;20563;-85
2021/12/24 14:00:37;;;;;;;3.20;2.40;;;7.50;99.90;;;;;;5054936;28;20041;-85
2021/12/24 14:03:08;;;;;;;3.73;2.67;;;7.40;99.90;;;;;;5047425;28;20071;-85
2021/12/24 14:05:44;;;;;;;3.13;2.80;;;7.50;99.90;;;;;;5041388;28;20040;-85
2021/12/24 14:08:11;;;;;;;3.27;2.77;;;7.50;99.90;;;;;;5038249;28;20048;-85
2021/12/24 14:10:39;;;;;;;3.70;2.60;;;7.50;99.90;;;;;;5052235;28;20078;-85
2021/12/24 14:13:09;;;;;;;3.00;2.53;;;7.50;99.90;;;;;;5047304;28;20135;-85
2021/12/24 14:15:50;;;;;;;3.60;2.57;;;7.50;99.90;;;;;;5041951;28;20045;-85
2021/12/24 14:18:44;;;;;;;3.43;2.63;;;7.50;99.90;;;;;;5048483;28;20076;-85
2021/12/24 14:24:10;;;;;;;3.40;2.50;;;7.60;99.90;;;;;;5049939;28;20044;-85
2021/12/24 14:26:39;;;;;;;2.90;2.60;;;7.60;99.90;;;;;;5041862;28;20041;-85
2021/12/24 14:29:06;;;;;;;3.63;2.63;;;7.60;99.90;;;;;;5054316;28;20102;-85
2021/12/24 14:31:47;;;;;;;2.97;2.23;;;7.60;99.90;;;;;;5069672;28;20097;-85
2021/12/24 14:34:28;;;;;;;3.07;2.30;;;7.60;99.90;;;;;;5053647;28;20040;-85
2021/12/24 14:36:57;;;;;;;3.00;2.63;;;7.60;99.90;;;;;;5035697;28;20036;-85
2021/12/24 14:39:23;;;;;;;2.67;2.27;;;7.60;99.90;;;;;;5032782;28;20041;-85
2021/12/24 14:42:07;;;;;;;3.17;2.83;;;7.60;99.90;;;;;;5047462;28;20045;-85
2021/12/24 14:44:33;;;;;;;3.30;2.83;;;7.60;99.90;;;;;;5031761;28;20136;-84
2021/12/24 14:46:59;;;;;;;4.43;2.40;;;7.50;99.90;;;;;;5020744;28;20069;-85